createdAt,value
2023-04-13T00:02:39.131Z,98840.86
2023-04-13T00:06:42.731Z,98839.42
2023-04-13T00:10:46.148Z,98842.09
2023-04-13T00:14:51.017Z,98845.16
2023-04-13T00:18:54.010Z,98850.23
2023-04-13T00:22:57.149Z,98844.24
2023-04-13T00:27:01.338Z,98846.04
2023-04-13T00:31:04.480Z,98841.55
2023-04-13T00:35:08.562Z,98848.27
2023-04-13T00:39:11.503Z,98850.10
2023-04-13T00:43:15.031Z,98848.90
2023-04-13T00:47:26.578Z,98843.40
2023-04-13T00:51:33.171Z,98852.56
2023-04-13T00:55:42.171Z,98860.27
2023-04-13T00:59:45.783Z,98856.48
2023-04-13T01:03:49.769Z,98856.97
2023-04-13T01:08:13.840Z,98861.23
2023-04-13T01:12:39.421Z,98855.87
2023-04-13T01:16:47.063Z,98852.88
2023-04-13T01:20:53.108Z,98855.70
2023-04-13T01:25:02.269Z,98858.19
2023-04-13T01:29:06.598Z,98862.19
2023-04-13T01:33:11.459Z,98870.77
2023-04-13T01:37:15.335Z,98867.93
2023-04-13T01:41:18.645Z,98867.02
2023-04-13T01:45:26.437Z,98869.11
2023-04-13T01:49:29.914Z,98880.02
2023-04-13T01:53:38.737Z,98877.90
2023-04-13T01:57:47.442Z,98880.55
2023-04-13T02:01:50.572Z,98873.15
2023-04-13T02:05:53.651Z,98867.62
2023-04-13T02:09:56.599Z,98864.29
2023-04-13T02:13:59.894Z,98861.39
2023-04-13T02:18:06.239Z,98859.37
2023-04-13T02:22:09.206Z,98859.84
2023-04-13T02:26:13.750Z,98864.48
2023-04-13T02:30:17.429Z,98868.92
2023-04-13T02:34:20.422Z,98874.48
2023-04-13T02:38:23.409Z,98880.96
2023-04-13T02:42:26.615Z,98877.34
2023-04-13T02:46:32.163Z,98881.23
2023-04-13T02:50:36.008Z,98883.06
2023-04-13T02:54:39.033Z,98877.81
2023-04-13T02:58:42.001Z,98880.17
2023-04-13T03:02:45.120Z,98874.92
2023-04-13T03:06:48.876Z,98873.85
2023-04-13T03:10:54.347Z,98876.54
2023-04-13T03:14:57.497Z,98875.66
2023-04-13T03:19:00.610Z,98870.22
2023-04-13T03:23:04.603Z,98877.45
2023-04-13T03:27:08.058Z,98878.86
2023-04-13T03:31:11.020Z,98880.01
2023-04-13T03:35:14.047Z,98889.18
2023-04-13T03:39:17.142Z,98893.51
2023-04-13T03:43:20.016Z,98894.41
2023-04-13T03:47:22.948Z,98899.20
2023-04-13T03:51:25.895Z,98902.85
2023-04-13T03:55:28.944Z,98907.77
2023-04-13T03:59:32.021Z,98915.08
2023-04-13T04:03:35.033Z,98922.44
2023-04-13T04:07:38.282Z,98931.65
2023-04-13T04:11:41.564Z,98936.64
2023-04-13T04:15:44.602Z,98939.69
2023-04-13T04:19:47.615Z,98933.77
2023-04-13T04:23:52.347Z,98935.98
2023-04-13T04:27:57.883Z,98936.85
2023-04-13T04:32:05.748Z,98938.48
2023-04-13T04:36:14.388Z,98937.19
2023-04-13T04:40:17.549Z,98947.71
2023-04-13T04:44:25.293Z,98954.23
2023-04-13T04:48:31.836Z,98956.60
2023-04-13T04:52:34.913Z,98957.56
2023-04-13T04:56:37.942Z,98958.05
2023-04-13T05:00:41.377Z,98963.70
2023-04-13T05:04:44.685Z,98967.70
2023-04-13T05:08:47.728Z,98969.18
2023-04-13T05:12:51.261Z,98965.16
2023-04-13T05:16:54.670Z,98969.14
2023-04-13T05:20:57.872Z,98977.34
2023-04-13T05:25:01.239Z,98980.92
2023-04-13T05:29:05.449Z,98980.00
2023-04-13T05:33:09.250Z,98983.48
2023-04-13T05:37:14.710Z,98988.10
2023-04-13T05:41:17.726Z,98991.46
2023-04-13T05:45:21.662Z,98998.45
2023-04-13T05:49:24.780Z,98995.66
2023-04-13T05:53:27.851Z,98998.92
2023-04-13T05:57:31.162Z,99003.95
2023-04-13T06:01:35.111Z,99010.27
2023-04-13T06:05:38.708Z,99018.75
2023-04-13T06:09:41.780Z,99023.19
2023-04-13T06:13:44.974Z,99024.25
2023-04-13T06:17:51.618Z,99025.40
2023-04-13T06:21:54.760Z,99025.30
2023-04-13T06:25:58.496Z,99029.57
2023-04-13T06:30:02.646Z,99040.25
2023-04-13T06:34:05.673Z,99041.96
2023-04-13T06:38:10.239Z,99056.14
2023-04-13T06:42:13.773Z,99069.40
2023-04-13T06:46:19.094Z,99074.02
2023-04-13T06:50:22.925Z,99071.67
2023-04-13T06:54:26.694Z,99069.22
2023-04-13T06:58:30.297Z,99070.68
2023-04-13T07:02:34.034Z,99076.08
2023-04-13T07:06:37.429Z,99081.53
2023-04-13T07:10:41.253Z,99085.30
2023-04-13T07:14:46.444Z,99084.83
2023-04-13T07:18:49.548Z,99093.97
2023-04-13T07:22:52.659Z,99100.01
2023-04-13T07:26:58.967Z,99099.33
2023-04-13T07:31:03.664Z,99099.81
2023-04-13T07:35:07.089Z,99100.19
2023-04-13T07:39:10.835Z,99106.48
2023-04-13T07:43:13.996Z,99113.77
2023-04-13T07:47:16.965Z,99124.14
2023-04-13T07:51:20.569Z,99120.66
2023-04-13T07:55:23.722Z,99130.63
2023-04-13T07:59:26.809Z,99134.55
2023-04-13T08:03:34.014Z,99139.34
2023-04-13T08:07:37.256Z,99148.50
2023-04-13T08:11:42.997Z,99145.91
2023-04-13T08:15:45.999Z,99147.23
2023-04-13T08:19:49.340Z,99158.11
2023-04-13T08:23:52.308Z,99159.06
2023-04-13T08:27:55.443Z,99164.27
2023-04-13T08:31:59.093Z,99168.25
2023-04-13T08:36:02.302Z,99163.55
2023-04-13T08:40:07.921Z,99164.20
2023-04-13T08:44:13.728Z,99158.88
2023-04-13T08:48:19.448Z,99158.98
2023-04-13T08:52:23.369Z,99158.50
2023-04-13T08:56:42.060Z,99163.71
2023-04-13T09:00:50.369Z,99155.83
2023-04-13T09:04:55.708Z,99159.79
2023-04-13T09:08:59.824Z,99165.02
2023-04-13T09:13:06.986Z,99160.25
2023-04-13T09:17:10.023Z,99161.67
2023-04-13T09:21:13.463Z,99165.73
2023-04-13T09:25:24.108Z,99166.77
2023-04-13T09:29:27.227Z,99155.95
2023-04-13T09:33:36.265Z,99151.98
2023-04-13T09:37:43.399Z,99170.69
2023-04-13T09:41:49.723Z,99180.88
2023-04-13T09:45:53.428Z,99186.46
2023-04-13T09:49:57.208Z,99198.92
2023-04-13T09:54:00.702Z,99204.39
2023-04-13T09:58:17.688Z,99201.20
2023-04-13T10:02:22.008Z,99198.70
2023-04-13T10:06:25.462Z,99200.13
2023-04-13T10:10:29.142Z,99204.02
2023-04-13T10:14:36.337Z,99215.05
2023-04-13T10:19:00.729Z,99226.86
2023-04-13T10:23:06.004Z,99223.33
2023-04-13T10:27:36.638Z,99229.86
2023-04-13T10:31:42.873Z,99234.09
2023-04-13T10:55:37.023Z,99250.20
2023-04-13T10:59:59.178Z,99255.66
2023-04-13T11:04:10.309Z,99263.71
2023-04-13T11:08:21.644Z,99264.92
2023-04-13T11:12:27.353Z,99269.94
2023-04-13T11:16:30.883Z,99269.38
2023-04-13T11:20:40.747Z,99272.73
2023-04-13T11:24:45.205Z,99278.56
2023-04-13T11:28:48.703Z,99278.62
2023-04-13T11:32:56.315Z,99281.98
2023-04-13T11:37:05.411Z,99281.77
2023-04-13T11:41:16.574Z,99280.66
2023-04-13T11:45:23.084Z,99277.11
2023-04-13T11:49:26.548Z,99285.77
2023-04-13T11:53:30.426Z,99285.64
2023-04-13T11:57:34.135Z,99293.88
2023-04-13T12:01:43.750Z,99291.49
2023-04-13T12:06:04.389Z,99293.39
2023-04-13T12:10:10.961Z,99294.36
2023-04-13T12:18:36.585Z,99298.30
2023-04-13T12:22:55.021Z,99297.06
2023-04-13T12:31:14.132Z,99297.73
2023-04-13T12:35:19.669Z,99295.80
2023-04-13T12:39:22.873Z,99295.96
2023-04-13T12:43:26.933Z,99298.64
2023-04-13T12:47:30.224Z,99303.52
2023-04-13T12:51:33.488Z,99303.61
2023-04-13T12:55:37.155Z,99308.81
2023-04-13T12:59:40.813Z,99309.94
2023-04-13T13:03:45.990Z,99309.51
2023-04-13T13:07:49.750Z,99311.19
2023-04-13T13:11:53.076Z,99304.80
2023-04-13T13:15:56.433Z,99303.92
2023-04-13T13:20:01.267Z,99304.75
2023-04-13T13:28:50.938Z,99307.30
2023-04-13T13:32:58.604Z,99309.16
2023-04-13T13:37:02.297Z,99309.98
2023-04-13T13:41:05.896Z,99305.77
2023-04-13T13:45:09.983Z,99305.73
2023-04-13T13:49:13.368Z,99307.33
2023-04-13T13:53:16.967Z,99309.56
2023-04-13T14:01:53.524Z,99317.09
2023-04-13T14:05:56.962Z,99315.92
2023-04-13T14:10:00.347Z,99311.98
2023-04-13T14:14:18.247Z,99315.86
2023-04-13T14:18:24.527Z,99323.77
2023-04-13T14:22:30.455Z,99325.48
2023-04-13T14:26:36.546Z,99327.70
2023-04-13T14:30:40.860Z,99321.25
2023-04-13T14:35:17.208Z,99325.57
2023-04-13T14:39:20.615Z,99317.96
2023-04-13T14:43:24.122Z,99320.06
2023-04-13T14:47:27.564Z,99319.98
2023-04-13T14:52:08.654Z,99321.91
2023-04-13T15:00:54.788Z,99325.50
2023-04-13T15:04:58.357Z,99326.08
2023-04-13T15:09:03.982Z,99327.65
2023-04-13T15:13:08.858Z,99334.64
2023-04-13T15:17:12.722Z,99334.55
2023-04-13T15:21:16.149Z,99336.45
2023-04-13T15:25:19.389Z,99337.86
2023-04-13T15:29:25.084Z,99341.27
2023-04-13T15:33:29.928Z,99341.70
2023-04-13T15:37:33.902Z,99342.66
2023-04-13T15:41:37.242Z,99351.05
2023-04-13T15:45:41.267Z,99352.33
2023-04-13T15:49:44.707Z,99354.10
2023-04-13T15:53:48.419Z,99360.29
2023-04-13T15:57:54.027Z,99360.96
2023-04-13T16:01:57.558Z,99361.28
2023-04-13T16:06:02.170Z,99362.38
2023-04-13T16:10:07.063Z,99365.69
2023-04-13T16:14:10.427Z,99370.18
2023-04-13T16:18:13.683Z,99366.63
2023-04-13T16:22:17.303Z,99370.34
2023-04-13T16:26:21.277Z,99372.19
2023-04-13T16:30:24.876Z,99365.23
2023-04-13T16:34:28.266Z,99367.32
2023-04-13T16:38:31.646Z,99366.38
2023-04-13T16:42:35.704Z,99374.38
2023-04-13T16:46:39.063Z,99368.60
2023-04-13T16:50:43.421Z,99371.43
2023-04-13T16:54:47.640Z,99377.77
2023-04-13T16:58:51.245Z,99380.48
2023-04-13T17:02:54.878Z,99382.77
2023-04-13T17:07:04.830Z,99390.02
2023-04-13T17:11:08.761Z,99391.02
2023-04-13T17:15:12.386Z,99397.55
2023-04-13T17:19:16.298Z,99404.92
2023-04-13T17:23:20.196Z,99412.73
2023-04-13T17:27:23.931Z,99423.16
2023-04-13T17:31:27.941Z,99423.59
2023-04-13T17:35:31.351Z,99428.81
2023-04-13T17:39:36.311Z,99433.54
2023-04-13T17:43:42.310Z,99436.94
2023-04-13T17:47:49.230Z,99440.06
2023-04-13T17:51:55.428Z,99437.08
2023-04-13T17:55:59.265Z,99437.01
2023-04-13T18:00:03.080Z,99438.87
2023-04-13T18:04:06.610Z,99445.84
2023-04-13T18:08:10.385Z,99456.05
2023-04-13T18:12:14.224Z,99465.88
2023-04-13T18:16:17.769Z,99472.25
2023-04-13T18:20:21.421Z,99480.84
2023-04-13T18:24:24.989Z,99485.18
2023-04-13T18:28:29.865Z,99487.19
2023-04-13T18:32:36.119Z,99489.95
2023-04-13T18:36:51.265Z,99491.25
2023-04-13T18:41:02.885Z,99498.25
2023-04-13T18:45:09.630Z,99497.44
2023-04-13T18:49:12.963Z,99497.52
2023-04-13T18:53:16.510Z,99499.60
2023-04-13T18:57:20.435Z,99499.58
2023-04-13T19:01:23.953Z,99494.27
2023-04-13T19:05:28.005Z,99489.80
2023-04-13T19:09:32.603Z,99495.05
2023-04-13T19:13:37.992Z,99501.42
2023-04-13T19:17:42.307Z,99502.83
2023-04-13T19:21:47.070Z,99500.52
2023-04-13T19:25:53.679Z,99500.70
2023-04-13T19:29:57.492Z,99503.19
2023-04-13T19:34:01.062Z,99511.59
2023-04-13T19:38:04.455Z,99521.38
2023-04-13T19:42:08.645Z,99518.70
2023-04-13T19:46:12.943Z,99518.44
2023-04-13T19:50:17.904Z,99513.20
2023-04-13T19:54:23.986Z,99511.69
2023-04-13T19:58:29.080Z,99520.27
2023-04-13T20:02:32.477Z,99521.27
2023-04-13T20:06:36.639Z,99525.05
2023-04-13T20:10:40.141Z,99522.04
2023-04-13T20:24:39.286Z,99513.89
2023-04-13T20:29:12.015Z,99511.68
2023-04-13T20:33:17.757Z,99510.12
2023-04-13T20:37:21.831Z,99504.16
2023-04-13T20:41:32.459Z,99501.19
2023-04-13T20:46:25.434Z,99496.72
2023-04-13T20:51:07.560Z,99504.34
2023-04-13T21:29:00.482Z,99431.34
2023-04-13T21:38:55.623Z,99426.10
2023-04-13T21:49:15.468Z,99429.10
2023-04-13T21:58:13.017Z,99430.88
2023-04-13T22:02:16.489Z,99429.79
2023-04-13T22:06:20.992Z,99430.25
2023-04-13T22:10:24.516Z,99432.86
2023-04-13T22:14:27.980Z,99435.91
2023-04-13T22:18:31.277Z,99439.39
2023-04-13T22:22:34.504Z,99442.77
2023-04-13T22:26:37.841Z,99433.82
2023-04-13T22:30:41.500Z,99428.75
2023-04-13T22:34:44.841Z,99419.58
2023-04-13T22:38:49.230Z,99417.55
2023-04-13T22:42:54.151Z,99416.75
2023-04-13T22:46:57.892Z,99418.00
2023-04-13T22:51:01.105Z,99414.00
2023-04-13T22:55:04.714Z,99411.59
2023-04-13T22:59:08.018Z,99413.36
2023-04-13T23:03:14.608Z,99418.17
2023-04-13T23:07:18.063Z,99410.81
2023-04-13T23:11:21.965Z,99408.73
2023-04-13T23:15:25.889Z,99409.80
2023-04-13T23:19:29.318Z,99397.05
2023-04-13T23:23:32.490Z,99388.38
2023-04-13T23:27:35.763Z,99389.41
2023-04-13T23:31:39.271Z,99394.29
2023-04-13T23:35:42.501Z,99382.95
2023-04-13T23:39:45.751Z,99379.57
2023-04-13T23:43:51.691Z,99385.33
2023-04-13T23:47:55.052Z,99386.59
2023-04-13T23:51:58.465Z,99388.49
2023-04-13T23:56:01.710Z,99388.73
